sensor_id;sensor_type;location;lat;lon;timestamp;P1;durP1;ratioP1;P2;durP2;ratioP2
68989;SDS011;56046;47.270;11.368;2022-10-16T00:00:16;10.40;;;4.97;;
68989;SDS011;56046;47.270;11.368;2022-10-16T00:02:42;12.17;;;5.23;;
68989;SDS011;56046;47.270;11.368;2022-10-16T00:05:07;11.30;;;4.87;;
68989;SDS011;56046;47.270;11.368;2022-10-16T00:07:33;10.83;;;5.60;;
68989;SDS011;56046;47.270;11.368;2022-10-16T00:09:58;11.55;;;4.90;;
68989;SDS011;56046;47.270;11.368;2022-10-16T00:12:23;11.50;;;5.60;;
68989;SDS011;56046;47.270;11.368;2022-10-16T00:14:49;11.47;;;5.70;;
68989;SDS011;56046;47.270;11.368;2022-10-16T00:17:14;14.13;;;5.57;;
68989;SDS011;56046;47.270;11.368;2022-10-16T00:19:40;13.75;;;5.80;;
68989;SDS011;56046;47.270;11.368;2022-10-16T00:22:05;12.60;;;6.00;;
68989;SDS011;56046;47.270;11.368;2022-10-16T00:24:31;13.70;;;7.10;;
68989;SDS011;56046;47.270;11.368;2022-10-16T00:26:56;14.77;;;6.07;;
68989;SDS011;56046;47.270;11.368;2022-10-16T00:29:21;12.40;;;6.03;;
68989;SDS011;56046;47.270;11.368;2022-10-16T00:31:47;14.77;;;6.50;;
68989;SDS011;56046;47.270;11.368;2022-10-16T00:34:12;14.97;;;6.30;;
68989;SDS011;56046;47.270;11.368;2022-10-16T00:36:38;14.27;;;6.40;;
68989;SDS011;56046;47.270;11.368;2022-10-16T00:39:04;15.63;;;7.53;;
68989;SDS011;56046;47.270;11.368;2022-10-16T00:41:30;15.27;;;7.93;;
68989;SDS011;56046;47.270;11.368;2022-10-16T00:43:56;17.60;;;7.20;;
68989;SDS011;56046;47.270;11.368;2022-10-16T00:46:24;13.88;;;6.95;;
68989;SDS011;56046;47.270;11.368;2022-10-16T00:51:29;16.60;;;6.70;;
68989;SDS011;56046;47.270;11.368;2022-10-16T00:54:00;12.88;;;5.88;;
68989;SDS011;56046;47.270;11.368;2022-10-16T00:56:28;11.63;;;5.70;;
68989;SDS011;56046;47.270;11.368;2022-10-16T00:58:53;11.50;;;5.90;;
68989;SDS011;56046;47.270;11.368;2022-10-16T01:01:19;12.00;;;5.97;;
68989;SDS011;56046;47.270;11.368;2022-10-16T01:03:44;11.87;;;5.87;;
68989;SDS011;56046;47.270;11.368;2022-10-16T01:06:21;12.00;;;5.47;;
68989;SDS011;56046;47.270;11.368;2022-10-16T01:14:42;11.68;;;5.22;;
68989;SDS011;56046;47.270;11.368;2022-10-16T01:19:50;10.37;;;5.00;;
68989;SDS011;56046;47.270;11.368;2022-10-16T01:22:16;10.38;;;5.57;;
68989;SDS011;56046;47.270;11.368;2022-10-16T01:24:45;10.63;;;5.23;;
68989;SDS011;56046;47.270;11.368;2022-10-16T01:27:30;10.30;;;5.30;;
68989;SDS011;56046;47.270;11.368;2022-10-16T01:30:13;12.18;;;6.18;;
68989;SDS011;56046;47.270;11.368;2022-10-16T01:32:45;13.32;;;6.30;;
68989;SDS011;56046;47.270;11.368;2022-10-16T01:35:17;12.90;;;6.03;;
68989;SDS011;56046;47.270;11.368;2022-10-16T01:37:54;12.73;;;5.60;;
68989;SDS011;56046;47.270;11.368;2022-10-16T01:40:44;14.02;;;5.70;;
68989;SDS011;56046;47.270;11.368;2022-10-16T01:43:25;13.40;;;5.90;;
68989;SDS011;56046;47.270;11.368;2022-10-16T01:45:55;13.02;;;5.45;;
68989;SDS011;56046;47.270;11.368;2022-10-16T01:48:21;16.10;;;6.25;;
68989;SDS011;56046;47.270;11.368;2022-10-16T01:50:51;12.53;;;5.93;;
68989;SDS011;56046;47.270;11.368;2022-10-16T01:53:29;12.05;;;5.57;;
68989;SDS011;56046;47.270;11.368;2022-10-16T01:55:56;12.95;;;6.70;;
68989;SDS011;56046;47.270;11.368;2022-10-16T01:58:24;13.73;;;6.25;;
68989;SDS011;56046;47.270;11.368;2022-10-16T02:00:51;12.13;;;6.85;;
68989;SDS011;56046;47.270;11.368;2022-10-16T02:03:19;12.97;;;6.40;;
68989;SDS011;56046;47.270;11.368;2022-10-16T02:05:46;13.20;;;6.28;;
68989;SDS011;56046;47.270;11.368;2022-10-16T02:08:14;11.25;;;6.07;;
68989;SDS011;56046;47.270;11.368;2022-10-16T02:10:40;11.60;;;5.77;;
68989;SDS011;56046;47.270;11.368;2022-10-16T02:13:07;11.73;;;5.85;;
68989;SDS011;56046;47.270;11.368;2022-10-16T02:15:37;11.65;;;6.57;;
68989;SDS011;56046;47.270;11.368;2022-10-16T02:18:03;9.73;;;5.40;;
68989;SDS011;56046;47.270;11.368;2022-10-16T02:20:32;9.73;;;5.20;;
68989;SDS011;56046;47.270;11.368;2022-10-16T02:23:01;11.13;;;5.88;;
68989;SDS011;56046;47.270;11.368;2022-10-16T02:25:32;13.63;;;5.90;;
68989;SDS011;56046;47.270;11.368;2022-10-16T02:30:50;11.13;;;5.10;;
68989;SDS011;56046;47.270;11.368;2022-10-16T02:33:24;10.67;;;5.07;;
68989;SDS011;56046;47.270;11.368;2022-10-16T02:35:51;10.75;;;5.85;;
68989;SDS011;56046;47.270;11.368;2022-10-16T02:38:18;9.73;;;5.55;;
68989;SDS011;56046;47.270;11.368;2022-10-16T02:40:45;10.80;;;5.38;;
68989;SDS011;56046;47.270;11.368;2022-10-16T02:43:11;8.80;;;4.93;;
68989;SDS011;56046;47.270;11.368;2022-10-16T02:45:37;8.75;;;5.18;;
68989;SDS011;56046;47.270;11.368;2022-10-16T02:48:02;10.52;;;5.25;;
68989;SDS011;56046;47.270;11.368;2022-10-16T02:50:28;9.27;;;5.10;;
68989;SDS011;56046;47.270;11.368;2022-10-16T02:52:53;10.43;;;5.23;;
68989;SDS011;56046;47.270;11.368;2022-10-16T02:55:19;11.25;;;5.90;;
68989;SDS011;56046;47.270;11.368;2022-10-16T02:57:44;10.20;;;5.73;;
68989;SDS011;56046;47.270;11.368;2022-10-16T03:00:11;12.23;;;6.07;;
68989;SDS011;56046;47.270;11.368;2022-10-16T03:02:38;11.13;;;5.50;;
68989;SDS011;56046;47.270;11.368;2022-10-16T03:05:04;12.77;;;5.60;;
68989;SDS011;56046;47.270;11.368;2022-10-16T03:07:30;12.60;;;6.13;;
68989;SDS011;56046;47.270;11.368;2022-10-16T03:09:55;9.57;;;5.57;;
68989;SDS011;56046;47.270;11.368;2022-10-16T03:12:21;11.60;;;5.65;;
68989;SDS011;56046;47.270;11.368;2022-10-16T03:14:46;12.80;;;5.23;;
68989;SDS011;56046;47.270;11.368;2022-10-16T03:17:12;12.98;;;5.70;;
68989;SDS011;56046;47.270;11.368;2022-10-16T03:19:38;10.13;;;5.47;;
68989;SDS011;56046;47.270;11.368;2022-10-16T03:22:04;9.35;;;4.90;;
68989;SDS011;56046;47.270;11.368;2022-10-16T03:24:29;8.93;;;4.97;;
68989;SDS011;56046;47.270;11.368;2022-10-16T03:26:55;9.88;;;4.93;;
68989;SDS011;56046;47.270;11.368;2022-10-16T03:29:20;9.27;;;4.50;;
68989;SDS011;56046;47.270;11.368;2022-10-16T03:31:46;10.37;;;4.70;;
68989;SDS011;56046;47.270;11.368;2022-10-16T03:34:13;10.45;;;5.38;;
68989;SDS011;56046;47.270;11.368;2022-10-16T03:36:38;11.53;;;5.37;;
68989;SDS011;56046;47.270;11.368;2022-10-16T03:39:04;9.63;;;5.05;;
68989;SDS011;56046;47.270;11.368;2022-10-16T03:41:29;11.83;;;5.23;;
68989;SDS011;56046;47.270;11.368;2022-10-16T03:43:55;10.90;;;5.43;;
68989;SDS011;56046;47.270;11.368;2022-10-16T03:46:20;10.67;;;5.07;;
68989;SDS011;56046;47.270;11.368;2022-10-16T03:48:46;10.52;;;4.88;;
68989;SDS011;56046;47.270;11.368;2022-10-16T03:51:11;10.37;;;5.07;;
68989;SDS011;56046;47.270;11.368;2022-10-16T03:53:36;10.47;;;5.40;;
68989;SDS011;56046;47.270;11.368;2022-10-16T03:56:02;10.87;;;5.53;;
68989;SDS011;56046;47.270;11.368;2022-10-16T03:58:27;9.98;;;5.57;;
68989;SDS011;56046;47.270;11.368;2022-10-16T04:00:54;13.17;;;6.10;;
68989;SDS011;56046;47.270;11.368;2022-10-16T04:03:19;12.25;;;5.78;;
68989;SDS011;56046;47.270;11.368;2022-10-16T04:05:46;11.73;;;5.53;;
68989;SDS011;56046;47.270;11.368;2022-10-16T04:08:11;10.40;;;5.23;;
68989;SDS011;56046;47.270;11.368;2022-10-16T04:10:37;11.03;;;4.73;;
68989;SDS011;56046;47.270;11.368;2022-10-16T04:13:02;10.80;;;5.27;;
68989;SDS011;56046;47.270;11.368;2022-10-16T04:15:28;10.45;;;5.32;;
68989;SDS011;56046;47.270;11.368;2022-10-16T04:17:53;11.00;;;5.20;;
68989;SDS011;56046;47.270;11.368;2022-10-16T04:20:19;11.00;;;5.50;;
68989;SDS011;56046;47.270;11.368;2022-10-16T04:22:44;11.85;;;5.00;;
68989;SDS011;56046;47.270;11.368;2022-10-16T04:25:10;9.20;;;5.40;;
68989;SDS011;56046;47.270;11.368;2022-10-16T04:27:36;10.43;;;4.90;;
68989;SDS011;56046;47.270;11.368;2022-10-16T04:30:03;9.70;;;5.72;;
68989;SDS011;56046;47.270;11.368;2022-10-16T04:32:29;10.33;;;4.67;;
68989;SDS011;56046;47.270;11.368;2022-10-16T04:34:54;9.73;;;4.72;;
68989;SDS011;56046;47.270;11.368;2022-10-16T04:37:23;8.10;;;4.60;;
68989;SDS011;56046;47.270;11.368;2022-10-16T04:39:49;12.40;;;5.35;;
68989;SDS011;56046;47.270;11.368;2022-10-16T04:42:15;10.60;;;5.00;;
68989;SDS011;56046;47.270;11.368;2022-10-16T04:44:40;11.33;;;5.37;;
68989;SDS011;56046;47.270;11.368;2022-10-16T04:47:05;8.52;;;4.50;;
68989;SDS011;56046;47.270;11.368;2022-10-16T04:49:31;12.30;;;5.13;;
68989;SDS011;56046;47.270;11.368;2022-10-16T04:51:56;9.67;;;5.33;;
68989;SDS011;56046;47.270;11.368;2022-10-16T04:54:22;11.97;;;6.17;;
68989;SDS011;56046;47.270;11.368;2022-10-16T04:56:47;11.53;;;5.47;;
68989;SDS011;56046;47.270;11.368;2022-10-16T04:59:15;11.15;;;5.60;;
68989;SDS011;56046;47.270;11.368;2022-10-16T05:01:41;9.25;;;5.25;;
68989;SDS011;56046;47.270;11.368;2022-10-16T05:04:06;8.70;;;4.83;;
68989;SDS011;56046;47.270;11.368;2022-10-16T05:06:32;13.70;;;5.30;;
68989;SDS011;56046;47.270;11.368;2022-10-16T05:08:57;11.23;;;4.70;;
68989;SDS011;56046;47.270;11.368;2022-10-16T05:11:23;9.55;;;4.72;;
68989;SDS011;56046;47.270;11.368;2022-10-16T05:13:48;8.10;;;4.77;;
68989;SDS011;56046;47.270;11.368;2022-10-16T05:16:14;9.23;;;5.20;;
68989;SDS011;56046;47.270;11.368;2022-10-16T05:18:40;9.63;;;5.03;;
68989;SDS011;56046;47.270;11.368;2022-10-16T05:21:05;11.87;;;5.10;;
68989;SDS011;56046;47.270;11.368;2022-10-16T05:23:31;8.73;;;5.00;;
68989;SDS011;56046;47.270;11.368;2022-10-16T05:25:57;10.57;;;5.00;;
68989;SDS011;56046;47.270;11.368;2022-10-16T05:28:24;9.50;;;5.50;;
68989;SDS011;56046;47.270;11.368;2022-10-16T05:30:53;15.02;;;6.30;;
68989;SDS011;56046;47.270;11.368;2022-10-16T05:33:20;13.32;;;7.88;;
68989;SDS011;56046;47.270;11.368;2022-10-16T05:35:46;15.63;;;8.33;;
68989;SDS011;56046;47.270;11.368;2022-10-16T05:38:12;12.38;;;6.93;;
68989;SDS011;56046;47.270;11.368;2022-10-16T05:40:37;13.40;;;7.00;;
68989;SDS011;56046;47.270;11.368;2022-10-16T05:43:03;12.50;;;5.88;;
68989;SDS011;56046;47.270;11.368;2022-10-16T05:45:28;12.27;;;6.23;;
68989;SDS011;56046;47.270;11.368;2022-10-16T05:47:54;12.47;;;6.10;;
68989;SDS011;56046;47.270;11.368;2022-10-16T05:50:19;12.47;;;5.63;;
68989;SDS011;56046;47.270;11.368;2022-10-16T05:52:45;12.67;;;6.50;;
68989;SDS011;56046;47.270;11.368;2022-10-16T05:55:10;13.57;;;6.45;;
68989;SDS011;56046;47.270;11.368;2022-10-16T05:57:36;16.07;;;7.10;;
68989;SDS011;56046;47.270;11.368;2022-10-16T06:00:02;16.07;;;7.07;;
68989;SDS011;56046;47.270;11.368;2022-10-16T06:02:28;11.60;;;6.97;;
68989;SDS011;56046;47.270;11.368;2022-10-16T06:04:54;18.13;;;7.70;;
68989;SDS011;56046;47.270;11.368;2022-10-16T06:07:19;10.65;;;6.10;;
68989;SDS011;56046;47.270;11.368;2022-10-16T06:09:47;14.77;;;7.83;;
68989;SDS011;56046;47.270;11.368;2022-10-16T06:12:16;13.38;;;7.57;;
68989;SDS011;56046;47.270;11.368;2022-10-16T06:14:42;14.80;;;7.80;;
68989;SDS011;56046;47.270;11.368;2022-10-16T06:17:07;15.68;;;8.38;;
68989;SDS011;56046;47.270;11.368;2022-10-16T06:19:33;15.50;;;9.27;;
68989;SDS011;56046;47.270;11.368;2022-10-16T06:21:58;14.60;;;8.87;;
68989;SDS011;56046;47.270;11.368;2022-10-16T06:24:24;11.87;;;6.97;;
68989;SDS011;56046;47.270;11.368;2022-10-16T06:26:50;10.23;;;6.13;;
68989;SDS011;56046;47.270;11.368;2022-10-16T06:29:15;10.98;;;5.97;;
68989;SDS011;56046;47.270;11.368;2022-10-16T06:31:41;9.57;;;5.87;;
68989;SDS011;56046;47.270;11.368;2022-10-16T06:34:08;8.30;;;4.70;;
68989;SDS011;56046;47.270;11.368;2022-10-16T06:36:35;11.88;;;4.78;;
68989;SDS011;56046;47.270;11.368;2022-10-16T06:39:01;8.88;;;4.30;;
68989;SDS011;56046;47.270;11.368;2022-10-16T06:41:27;8.87;;;4.73;;
68989;SDS011;56046;47.270;11.368;2022-10-16T06:43:52;10.77;;;4.70;;
68989;SDS011;56046;47.270;11.368;2022-10-16T06:46:19;8.63;;;4.85;;
68989;SDS011;56046;47.270;11.368;2022-10-16T06:48:46;9.57;;;5.00;;
68989;SDS011;56046;47.270;11.368;2022-10-16T06:51:13;9.70;;;4.75;;
68989;SDS011;56046;47.270;11.368;2022-10-16T06:53:41;9.70;;;5.15;;
68989;SDS011;56046;47.270;11.368;2022-10-16T06:58:45;12.68;;;6.03;;
68989;SDS011;56046;47.270;11.368;2022-10-16T07:01:12;11.02;;;6.05;;
68989;SDS011;56046;47.270;11.368;2022-10-16T07:03:39;10.38;;;6.03;;
68989;SDS011;56046;47.270;11.368;2022-10-16T07:06:05;10.43;;;6.20;;
68989;SDS011;56046;47.270;11.368;2022-10-16T07:08:33;9.43;;;5.60;;
68989;SDS011;56046;47.270;11.368;2022-10-16T07:11:03;10.77;;;5.68;;
68989;SDS011;56046;47.270;11.368;2022-10-16T07:13:38;9.95;;;5.95;;
68989;SDS011;56046;47.270;11.368;2022-10-16T07:16:06;10.80;;;5.57;;
68989;SDS011;56046;47.270;11.368;2022-10-16T07:18:39;11.13;;;5.60;;
68989;SDS011;56046;47.270;11.368;2022-10-16T07:21:10;10.57;;;5.10;;
68989;SDS011;56046;47.270;11.368;2022-10-16T07:23:41;11.70;;;5.60;;
68989;SDS011;56046;47.270;11.368;2022-10-16T07:26:09;8.35;;;4.68;;
68989;SDS011;56046;47.270;11.368;2022-10-16T07:28:35;9.57;;;5.00;;
68989;SDS011;56046;47.270;11.368;2022-10-16T07:31:04;8.70;;;5.43;;
68989;SDS011;56046;47.270;11.368;2022-10-16T07:33:33;10.70;;;4.85;;
68989;SDS011;56046;47.270;11.368;2022-10-16T07:35:59;8.40;;;4.50;;
68989;SDS011;56046;47.270;11.368;2022-10-16T07:38:25;9.87;;;5.27;;
68989;SDS011;56046;47.270;11.368;2022-10-16T07:40:57;9.32;;;4.70;;
68989;SDS011;56046;47.270;11.368;2022-10-16T07:43:24;8.60;;;4.40;;
68989;SDS011;56046;47.270;11.368;2022-10-16T07:45:50;10.23;;;4.40;;
68989;SDS011;56046;47.270;11.368;2022-10-16T07:48:16;9.82;;;4.35;;
68989;SDS011;56046;47.270;11.368;2022-10-16T07:50:42;8.15;;;4.18;;
68989;SDS011;56046;47.270;11.368;2022-10-16T07:53:09;7.23;;;4.17;;
68989;SDS011;56046;47.270;11.368;2022-10-16T07:55:35;9.02;;;3.97;;
68989;SDS011;56046;47.270;11.368;2022-10-16T07:58:00;8.30;;;4.10;;
68989;SDS011;56046;47.270;11.368;2022-10-16T08:00:26;6.53;;;3.57;;
68989;SDS011;56046;47.270;11.368;2022-10-16T08:02:51;6.27;;;3.80;;
68989;SDS011;56046;47.270;11.368;2022-10-16T08:05:17;8.77;;;3.40;;
68989;SDS011;56046;47.270;11.368;2022-10-16T08:07:42;7.37;;;2.93;;
68989;SDS011;56046;47.270;11.368;2022-10-16T08:10:17;7.80;;;3.20;;
68989;SDS011;56046;47.270;11.368;2022-10-16T08:12:45;5.83;;;2.93;;
68989;SDS011;56046;47.270;11.368;2022-10-16T08:15:10;6.88;;;3.15;;
68989;SDS011;56046;47.270;11.368;2022-10-16T08:17:35;6.30;;;3.50;;
68989;SDS011;56046;47.270;11.368;2022-10-16T08:20:01;7.17;;;3.30;;
68989;SDS011;56046;47.270;11.368;2022-10-16T08:22:27;7.15;;;2.90;;
68989;SDS011;56046;47.270;11.368;2022-10-16T08:24:53;8.13;;;4.00;;
68989;SDS011;56046;47.270;11.368;2022-10-16T08:27:18;6.40;;;3.70;;
68989;SDS011;56046;47.270;11.368;2022-10-16T08:29:44;6.40;;;3.60;;
68989;SDS011;56046;47.270;11.368;2022-10-16T08:32:09;8.67;;;3.80;;
68989;SDS011;56046;47.270;11.368;2022-10-16T08:34:34;6.72;;;4.18;;
68989;SDS011;56046;47.270;11.368;2022-10-16T08:37:00;7.90;;;4.40;;
68989;SDS011;56046;47.270;11.368;2022-10-16T08:39:25;6.90;;;3.97;;
68989;SDS011;56046;47.270;11.368;2022-10-16T08:47:10;8.20;;;3.60;;
68989;SDS011;56046;47.270;11.368;2022-10-16T08:49:42;7.78;;;3.90;;
68989;SDS011;56046;47.270;11.368;2022-10-16T08:52:20;7.32;;;4.00;;
68989;SDS011;56046;47.270;11.368;2022-10-16T08:54:46;6.30;;;3.73;;
68989;SDS011;56046;47.270;11.368;2022-10-16T08:57:20;8.52;;;3.63;;
68989;SDS011;56046;47.270;11.368;2022-10-16T08:59:47;5.97;;;3.40;;
68989;SDS011;56046;47.270;11.368;2022-10-16T09:02:31;6.40;;;3.33;;
68989;SDS011;56046;47.270;11.368;2022-10-16T09:08:30;5.95;;;3.33;;
68989;SDS011;56046;47.270;11.368;2022-10-16T09:10:54;6.90;;;4.63;;
68989;SDS011;56046;47.270;11.368;2022-10-16T09:13:23;6.00;;;3.53;;
68989;SDS011;56046;47.270;11.368;2022-10-16T09:18:50;5.97;;;3.33;;
68989;SDS011;56046;47.270;11.368;2022-10-16T09:21:23;8.13;;;3.60;;
68989;SDS011;56046;47.270;11.368;2022-10-16T09:23:52;5.43;;;3.45;;
68989;SDS011;56046;47.270;11.368;2022-10-16T09:26:22;5.55;;;3.30;;
68989;SDS011;56046;47.270;11.368;2022-10-16T09:28:47;6.27;;;3.27;;
68989;SDS011;56046;47.270;11.368;2022-10-16T09:31:16;5.43;;;2.93;;
68989;SDS011;56046;47.270;11.368;2022-10-16T09:33:45;6.80;;;3.20;;
68989;SDS011;56046;47.270;11.368;2022-10-16T09:36:15;4.97;;;3.05;;
68989;SDS011;56046;47.270;11.368;2022-10-16T09:38:41;4.87;;;2.90;;
68989;SDS011;56046;47.270;11.368;2022-10-16T09:41:20;5.80;;;3.17;;
68989;SDS011;56046;47.270;11.368;2022-10-16T09:43:57;6.60;;;3.35;;
68989;SDS011;56046;47.270;11.368;2022-10-16T09:49:02;5.10;;;3.00;;
68989;SDS011;56046;47.270;11.368;2022-10-16T09:51:36;6.32;;;3.20;;
68989;SDS011;56046;47.270;11.368;2022-10-16T09:54:23;6.25;;;3.65;;
68989;SDS011;56046;47.270;11.368;2022-10-16T09:56:48;7.25;;;3.10;;
68989;SDS011;56046;47.270;11.368;2022-10-16T09:59:20;5.30;;;3.20;;
68989;SDS011;56046;47.270;11.368;2022-10-16T10:01:54;5.27;;;2.80;;
68989;SDS011;56046;47.270;11.368;2022-10-16T10:04:21;5.78;;;3.45;;
68989;SDS011;56046;47.270;11.368;2022-10-16T10:06:49;5.13;;;3.05;;
68989;SDS011;56046;47.270;11.368;2022-10-16T10:11:43;6.17;;;3.33;;
68989;SDS011;56046;47.270;11.368;2022-10-16T10:14:14;6.97;;;3.33;;
68989;SDS011;56046;47.270;11.368;2022-10-16T10:16:43;5.40;;;3.35;;
68989;SDS011;56046;47.270;11.368;2022-10-16T10:19:22;6.27;;;3.73;;
68989;SDS011;56046;47.270;11.368;2022-10-16T10:21:49;6.75;;;3.90;;
68989;SDS011;56046;47.270;11.368;2022-10-16T10:24:17;6.03;;;3.60;;
68989;SDS011;56046;47.270;11.368;2022-10-16T10:26:53;5.50;;;3.50;;
68989;SDS011;56046;47.270;11.368;2022-10-16T10:30:01;6.80;;;3.77;;
68989;SDS011;56046;47.270;11.368;2022-10-16T10:46:05;6.60;;;4.05;;
68989;SDS011;56046;47.270;11.368;2022-10-16T10:48:49;5.68;;;3.25;;
68989;SDS011;56046;47.270;11.368;2022-10-16T10:51:46;5.63;;;3.30;;
68989;SDS011;56046;47.270;11.368;2022-10-16T10:54:55;4.63;;;2.92;;
68989;SDS011;56046;47.270;11.368;2022-10-16T10:57:14;5.87;;;2.70;;
68989;SDS011;56046;47.270;11.368;2022-10-16T11:00:02;6.03;;;3.67;;
68989;SDS011;56046;47.270;11.368;2022-10-16T11:08:18;5.88;;;3.35;;
68989;SDS011;56046;47.270;11.368;2022-10-16T11:16:12;6.07;;;3.15;;
68989;SDS011;56046;47.270;11.368;2022-10-16T11:19:05;9.23;;;3.83;;
68989;SDS011;56046;47.270;11.368;2022-10-16T11:21:47;7.28;;;3.85;;
68989;SDS011;56046;47.270;11.368;2022-10-16T11:24:34;5.30;;;3.33;;
68989;SDS011;56046;47.270;11.368;2022-10-16T11:27:11;6.35;;;3.42;;
68989;SDS011;56046;47.270;11.368;2022-10-16T11:29:56;6.00;;;3.80;;
68989;SDS011;56046;47.270;11.368;2022-10-16T11:32:28;5.32;;;2.80;;
68989;SDS011;56046;47.270;11.368;2022-10-16T11:35:10;7.40;;;3.40;;
68989;SDS011;56046;47.270;11.368;2022-10-16T11:37:43;5.67;;;3.17;;
68989;SDS011;56046;47.270;11.368;2022-10-16T11:40:31;6.38;;;3.42;;
68989;SDS011;56046;47.270;11.368;2022-10-16T11:43:04;5.35;;;3.20;;
68989;SDS011;56046;47.270;11.368;2022-10-16T11:45:46;6.03;;;3.47;;
68989;SDS011;56046;47.270;11.368;2022-10-16T11:51:11;5.07;;;3.20;;
68989;SDS011;56046;47.270;11.368;2022-10-16T11:56:20;5.57;;;3.60;;
68989;SDS011;56046;47.270;11.368;2022-10-16T12:04:02;6.13;;;3.40;;
68989;SDS011;56046;47.270;11.368;2022-10-16T12:06:40;5.55;;;3.40;;
68989;SDS011;56046;47.270;11.368;2022-10-16T12:09:29;7.07;;;3.90;;
68989;SDS011;56046;47.270;11.368;2022-10-16T12:11:56;7.15;;;3.72;;
68989;SDS011;56046;47.270;11.368;2022-10-16T12:19:57;5.88;;;3.78;;
68989;SDS011;56046;47.270;11.368;2022-10-16T12:22:27;7.37;;;3.80;;
68989;SDS011;56046;47.270;11.368;2022-10-16T12:24:55;6.45;;;4.18;;
68989;SDS011;56046;47.270;11.368;2022-10-16T12:27:23;6.55;;;3.75;;
68989;SDS011;56046;47.270;11.368;2022-10-16T12:29:57;6.55;;;3.95;;
68989;SDS011;56046;47.270;11.368;2022-10-16T12:32:35;6.70;;;3.88;;
68989;SDS011;56046;47.270;11.368;2022-10-16T12:35:04;5.73;;;3.50;;
68989;SDS011;56046;47.270;11.368;2022-10-16T12:37:41;5.47;;;3.70;;
68989;SDS011;56046;47.270;11.368;2022-10-16T12:40:13;6.27;;;3.87;;
68989;SDS011;56046;47.270;11.368;2022-10-16T12:42:47;7.35;;;4.10;;
68989;SDS011;56046;47.270;11.368;2022-10-16T12:47:58;5.82;;;3.80;;
68989;SDS011;56046;47.270;11.368;2022-10-16T12:50:28;6.05;;;3.67;;
68989;SDS011;56046;47.270;11.368;2022-10-16T12:52:59;8.50;;;4.28;;
68989;SDS011;56046;47.270;11.368;2022-10-16T12:55:26;6.88;;;3.90;;
68989;SDS011;56046;47.270;11.368;2022-10-16T13:09:18;7.60;;;3.97;;
68989;SDS011;56046;47.270;11.368;2022-10-16T13:23:04;7.10;;;3.80;;
68989;SDS011;56046;47.270;11.368;2022-10-16T13:28:33;7.53;;;3.60;;
68989;SDS011;56046;47.270;11.368;2022-10-16T13:31:01;5.82;;;3.97;;
68989;SDS011;56046;47.270;11.368;2022-10-16T13:35:57;6.45;;;3.85;;
68989;SDS011;56046;47.270;11.368;2022-10-16T13:38:24;5.90;;;3.47;;
68989;SDS011;56046;47.270;11.368;2022-10-16T13:40:53;5.50;;;3.40;;
68989;SDS011;56046;47.270;11.368;2022-10-16T13:43:25;5.90;;;3.70;;
68989;SDS011;56046;47.270;11.368;2022-10-16T13:46:02;5.95;;;3.40;;
68989;SDS011;56046;47.270;11.368;2022-10-16T13:48:30;5.82;;;2.97;;
68989;SDS011;56046;47.270;11.368;2022-10-16T13:51:04;6.40;;;3.27;;
68989;SDS011;56046;47.270;11.368;2022-10-16T13:53:35;6.63;;;3.70;;
68989;SDS011;56046;47.270;11.368;2022-10-16T13:56:02;5.93;;;3.45;;
68989;SDS011;56046;47.270;11.368;2022-10-16T13:58:30;5.15;;;3.30;;
68989;SDS011;56046;47.270;11.368;2022-10-16T14:00:56;5.93;;;3.80;;
68989;SDS011;56046;47.270;11.368;2022-10-16T14:03:30;6.20;;;3.92;;
68989;SDS011;56046;47.270;11.368;2022-10-16T14:05:59;5.72;;;3.95;;
68989;SDS011;56046;47.270;11.368;2022-10-16T14:08:27;5.97;;;3.58;;
68989;SDS011;56046;47.270;11.368;2022-10-16T14:10:55;7.30;;;3.87;;
68989;SDS011;56046;47.270;11.368;2022-10-16T14:13:34;5.68;;;3.35;;
68989;SDS011;56046;47.270;11.368;2022-10-16T14:16:07;8.25;;;3.90;;
68989;SDS011;56046;47.270;11.368;2022-10-16T14:18:35;5.53;;;3.50;;
68989;SDS011;56046;47.270;11.368;2022-10-16T14:21:04;7.10;;;4.00;;
68989;SDS011;56046;47.270;11.368;2022-10-16T14:23:33;7.10;;;3.70;;
68989;SDS011;56046;47.270;11.368;2022-10-16T14:28:33;5.93;;;3.55;;
68989;SDS011;56046;47.270;11.368;2022-10-16T14:31:00;8.35;;;5.97;;
68989;SDS011;56046;47.270;11.368;2022-10-16T14:36:00;6.63;;;3.53;;
68989;SDS011;56046;47.270;11.368;2022-10-16T14:38:29;6.18;;;3.33;;
68989;SDS011;56046;47.270;11.368;2022-10-16T14:40:56;5.60;;;3.30;;
68989;SDS011;56046;47.270;11.368;2022-10-16T14:43:26;5.93;;;3.72;;
68989;SDS011;56046;47.270;11.368;2022-10-16T14:45:55;6.97;;;3.38;;
68989;SDS011;56046;47.270;11.368;2022-10-16T14:48:21;5.67;;;3.50;;
68989;SDS011;56046;47.270;11.368;2022-10-16T14:50:47;6.97;;;3.60;;
68989;SDS011;56046;47.270;11.368;2022-10-16T14:53:13;5.27;;;3.47;;
68989;SDS011;56046;47.270;11.368;2022-10-16T14:55:39;5.97;;;3.42;;
68989;SDS011;56046;47.270;11.368;2022-10-16T14:58:09;5.80;;;3.40;;
68989;SDS011;56046;47.270;11.368;2022-10-16T15:00:41;7.38;;;3.83;;
68989;SDS011;56046;47.270;11.368;2022-10-16T15:03:06;6.40;;;3.60;;
68989;SDS011;56046;47.270;11.368;2022-10-16T15:05:32;6.10;;;3.50;;
68989;SDS011;56046;47.270;11.368;2022-10-16T15:07:57;7.93;;;3.85;;
68989;SDS011;56046;47.270;11.368;2022-10-16T15:10:24;6.20;;;3.33;;
68989;SDS011;56046;47.270;11.368;2022-10-16T15:12:52;6.68;;;3.60;;
68989;SDS011;56046;47.270;11.368;2022-10-16T15:17:49;5.18;;;2.83;;
68989;SDS011;56046;47.270;11.368;2022-10-16T15:20:18;5.85;;;3.40;;
68989;SDS011;56046;47.270;11.368;2022-10-16T15:22:44;5.43;;;3.20;;
68989;SDS011;56046;47.270;11.368;2022-10-16T15:25:24;6.17;;;3.43;;
68989;SDS011;56046;47.270;11.368;2022-10-16T15:28:07;6.30;;;3.33;;
68989;SDS011;56046;47.270;11.368;2022-10-16T15:30:34;7.78;;;3.58;;
68989;SDS011;56046;47.270;11.368;2022-10-16T15:33:00;5.75;;;3.10;;
68989;SDS011;56046;47.270;11.368;2022-10-16T15:35:26;7.37;;;3.53;;
68989;SDS011;56046;47.270;11.368;2022-10-16T15:37:52;7.03;;;3.25;;
68989;SDS011;56046;47.270;11.368;2022-10-16T15:40:18;7.90;;;3.57;;
68989;SDS011;56046;47.270;11.368;2022-10-16T15:42:45;6.05;;;3.17;;
68989;SDS011;56046;47.270;11.368;2022-10-16T15:45:11;5.97;;;3.13;;
68989;SDS011;56046;47.270;11.368;2022-10-16T15:47:37;4.93;;;2.70;;
68989;SDS011;56046;47.270;11.368;2022-10-16T15:50:03;5.95;;;3.25;;
68989;SDS011;56046;47.270;11.368;2022-10-16T15:52:29;6.80;;;2.97;;
68989;SDS011;56046;47.270;11.368;2022-10-16T15:54:56;6.30;;;3.57;;
68989;SDS011;56046;47.270;11.368;2022-10-16T15:57:22;5.72;;;2.95;;
68989;SDS011;56046;47.270;11.368;2022-10-16T15:59:49;8.70;;;3.33;;
68989;SDS011;56046;47.270;11.368;2022-10-16T16:02:15;8.82;;;2.80;;
68989;SDS011;56046;47.270;11.368;2022-10-16T16:04:40;6.40;;;3.60;;
68989;SDS011;56046;47.270;11.368;2022-10-16T16:07:06;7.05;;;3.13;;
68989;SDS011;56046;47.270;11.368;2022-10-16T16:09:34;6.00;;;2.70;;
68989;SDS011;56046;47.270;11.368;2022-10-16T16:11:59;5.80;;;2.97;;
68989;SDS011;56046;47.270;11.368;2022-10-16T16:14:26;5.10;;;2.92;;
68989;SDS011;56046;47.270;11.368;2022-10-16T16:16:53;5.53;;;3.10;;
68989;SDS011;56046;47.270;11.368;2022-10-16T16:19:19;6.60;;;2.90;;
68989;SDS011;56046;47.270;11.368;2022-10-16T16:21:46;5.38;;;3.03;;
68989;SDS011;56046;47.270;11.368;2022-10-16T16:24:15;7.70;;;3.10;;
68989;SDS011;56046;47.270;11.368;2022-10-16T16:26:40;5.80;;;2.80;;
68989;SDS011;56046;47.270;11.368;2022-10-16T16:29:12;7.38;;;3.00;;